createdAt,value
2019-01-20T00:01:25.035Z,25.35
2019-01-20T00:03:54.128Z,28.83
2019-01-20T00:06:42.374Z,31.93
2019-01-20T00:09:30.653Z,32.33
2019-01-20T00:12:11.406Z,31.97
2019-01-20T00:14:50.739Z,28.67
2019-01-20T00:17:32.315Z,37.70
2019-01-20T00:20:13.625Z,30.05
2019-01-20T00:22:54.354Z,27.90
2019-01-20T00:25:35.000Z,35.48
2019-01-20T00:28:15.968Z,33.88
2019-01-20T00:30:57.067Z,35.68
2019-01-20T00:33:38.403Z,34.30
2019-01-20T00:36:18.983Z,36.00
2019-01-20T00:39:00.532Z,29.35
2019-01-20T00:44:45.001Z,31.68
2019-01-20T00:50:35.003Z,42.33
2019-01-20T00:55:57.734Z,27.35
2019-01-20T00:58:38.690Z,32.28
2019-01-20T01:01:19.412Z,34.45
2019-01-20T01:03:48.505Z,31.57
2019-01-20T01:06:36.694Z,34.08
2019-01-20T01:09:25.288Z,33.90
2019-01-20T01:12:07.502Z,39.48
2019-01-20T01:14:48.807Z,38.17
2019-01-20T01:17:30.589Z,28.57
2019-01-20T01:20:11.923Z,31.87
2019-01-20T01:22:53.644Z,33.13
2019-01-20T01:25:22.830Z,34.45
2019-01-20T01:28:03.705Z,38.60
2019-01-20T01:30:44.732Z,37.38
2019-01-20T01:33:25.735Z,30.57
2019-01-20T01:35:54.756Z,33.33
2019-01-20T01:38:43.056Z,35.13
2019-01-20T01:41:31.286Z,33.65
2019-01-20T01:44:12.024Z,31.57
2019-01-20T01:46:52.871Z,32.15
2019-01-20T01:49:33.914Z,31.90
2019-01-20T01:52:14.835Z,27.48
2019-01-20T01:54:56.322Z,36.53
2019-01-20T01:57:37.821Z,33.02
2019-01-20T02:00:19.222Z,33.18
2019-01-20T02:03:00.561Z,30.72
2019-01-20T02:05:29.711Z,28.70
2019-01-20T02:07:59.473Z,36.48
2019-01-20T02:10:47.734Z,28.00
2019-01-20T02:13:17.784Z,33.15
2019-01-20T02:16:06.129Z,37.45
2019-01-20T02:18:35.058Z,34.60
2019-01-20T02:21:23.344Z,65.30
2019-01-20T02:24:03.862Z,38.10
2019-01-20T02:26:45.000Z,33.98
2019-01-20T02:29:26.189Z,38.55
2019-01-20T02:32:06.790Z,39.20
2019-01-20T02:34:35.781Z,30.80
2019-01-20T02:37:24.114Z,29.55
2019-01-20T02:40:12.442Z,34.13
2019-01-20T02:42:53.797Z,29.40
2019-01-20T02:45:22.800Z,34.13
2019-01-20T02:48:11.076Z,29.35
2019-01-20T02:50:47.264Z,32.42
2019-01-20T02:53:35.540Z,28.05
2019-01-20T02:56:17.049Z,28.98
2019-01-20T02:58:59.426Z,30.37
2019-01-20T03:01:28.552Z,30.95
2019-01-20T03:11:14.838Z,22.42
2019-01-20T03:13:56.225Z,33.23
2019-01-20T03:16:25.342Z,32.88
2019-01-20T03:19:32.882Z,31.25
2019-01-20T03:25:14.160Z,32.03
2019-01-20T03:27:43.791Z,26.27
2019-01-20T03:30:31.964Z,21.40
2019-01-20T03:33:20.261Z,31.00
2019-01-20T03:36:01.191Z,31.68
2019-01-20T03:38:41.797Z,30.12
2019-01-20T03:41:10.875Z,26.02
2019-01-20T03:43:59.140Z,29.87
2019-01-20T03:46:40.385Z,28.05
2019-01-20T03:49:21.119Z,21.50
2019-01-20T03:52:02.665Z,27.35
2019-01-20T03:54:43.118Z,28.40
2019-01-20T03:57:23.633Z,28.83
2019-01-20T03:59:52.547Z,29.12
2019-01-20T04:08:17.908Z,19.87
2019-01-20T04:11:06.022Z,23.47
2019-01-20T04:13:54.499Z,21.77
2019-01-20T04:16:35.610Z,22.93
2019-01-20T04:19:04.524Z,23.67
2019-01-20T04:21:52.704Z,20.05
2019-01-20T04:24:21.749Z,17.37
2019-01-20T04:27:09.979Z,18.45
2019-01-20T04:29:51.102Z,23.00
2019-01-20T04:32:32.384Z,29.45
2019-01-20T04:35:12.920Z,23.57
2019-01-20T04:37:53.806Z,33.88
2019-01-20T04:40:34.987Z,21.48
2019-01-20T04:43:04.019Z,22.25
2019-01-20T04:45:33.086Z,25.60
2019-01-20T04:48:02.206Z,23.27
2019-01-20T04:50:50.705Z,24.27
2019-01-20T04:56:26.783Z,24.50
2019-01-20T04:59:07.813Z,21.05
2019-01-20T05:01:49.495Z,21.05
2019-01-20T05:04:30.624Z,25.92
2019-01-20T05:06:59.656Z,22.00
2019-01-20T05:09:48.684Z,20.08
2019-01-20T05:12:37.317Z,18.75
2019-01-20T05:15:13.175Z,20.70
2019-01-20T05:17:54.239Z,20.65
2019-01-20T05:20:35.545Z,20.85
2019-01-20T05:23:17.095Z,24.45
2019-01-20T05:25:58.333Z,21.17
2019-01-20T05:28:39.116Z,27.98
2019-01-20T05:31:08.052Z,22.42
2019-01-20T05:33:56.340Z,24.98
2019-01-20T05:36:44.619Z,26.02
2019-01-20T05:39:25.759Z,26.02
2019-01-20T05:42:07.483Z,20.23
2019-01-20T05:44:36.475Z,23.35
2019-01-20T05:47:24.784Z,24.20
2019-01-20T05:50:13.299Z,26.65
2019-01-20T05:52:54.357Z,19.70
2019-01-20T05:55:34.873Z,22.60
2019-01-20T05:58:04.117Z,23.02
2019-01-20T06:00:53.658Z,23.80
2019-01-20T06:03:42.735Z,24.72
2019-01-20T06:06:30.495Z,26.02
2019-01-20T06:09:11.464Z,21.93
2019-01-20T06:11:40.685Z,23.02
2019-01-20T06:14:29.726Z,27.37
2019-01-20T06:17:11.994Z,24.60
2019-01-20T06:19:52.651Z,23.42
2019-01-20T06:22:34.434Z,20.27
2019-01-20T06:25:16.214Z,20.30
2019-01-20T06:27:58.084Z,23.20
2019-01-20T06:30:40.156Z,25.10
2019-01-20T06:33:21.460Z,20.23
2019-01-20T06:35:50.502Z,27.30
2019-01-20T06:38:38.655Z,26.77
2019-01-20T06:41:26.740Z,26.35
2019-01-20T06:44:07.672Z,21.02
2019-01-20T06:46:48.732Z,25.77
2019-01-20T06:49:30.409Z,22.42
2019-01-20T06:52:12.169Z,18.67
2019-01-20T06:54:56.448Z,23.40
2019-01-20T06:57:39.298Z,32.35
2019-01-20T07:00:20.668Z,23.07
2019-01-20T07:03:01.868Z,25.77
2019-01-20T07:05:43.515Z,21.00
2019-01-20T07:08:12.676Z,21.00
2019-01-20T07:10:41.610Z,24.98
2019-01-20T07:13:11.372Z,25.77
2019-01-20T07:15:40.362Z,28.42
2019-01-20T07:21:24.102Z,25.72
2019-01-20T07:24:08.219Z,25.10
2019-01-20T07:26:55.847Z,27.90
2019-01-20T07:29:40.202Z,24.50
2019-01-20T07:32:22.406Z,25.68
2019-01-20T07:35:01.785Z,29.05
2019-01-20T07:37:50.289Z,24.52
2019-01-20T07:40:31.117Z,31.05
2019-01-20T07:43:16.851Z,31.60
2019-01-20T07:45:54.441Z,26.00
2019-01-20T07:48:35.666Z,28.67
2019-01-20T07:51:04.676Z,27.98
2019-01-20T07:53:52.880Z,29.80
2019-01-20T07:56:41.270Z,23.83
2019-01-20T07:59:22.241Z,29.15
2019-01-20T08:02:02.842Z,28.67
2019-01-20T08:04:43.683Z,23.35
2019-01-20T08:07:24.514Z,26.57
2019-01-20T08:10:05.966Z,26.57
2019-01-20T08:12:34.917Z,33.50
2019-01-20T08:15:23.155Z,28.27
2019-01-20T08:18:07.273Z,28.45
2019-01-20T08:20:48.747Z,27.87
2019-01-20T08:23:17.838Z,31.55
2019-01-20T08:26:06.701Z,25.50
2019-01-20T08:28:50.778Z,27.07
2019-01-20T08:31:20.018Z,30.08
2019-01-20T08:34:08.323Z,36.45
2019-01-20T08:36:56.618Z,36.05
2019-01-20T08:39:37.843Z,29.52
2019-01-20T08:45:04.420Z,23.87
2019-01-20T08:47:45.389Z,34.03
2019-01-20T08:50:26.159Z,30.70
2019-01-20T08:53:07.074Z,33.63
2019-01-20T08:55:47.905Z,30.88
2019-01-20T08:58:17.667Z,28.00
2019-01-20T09:00:46.707Z,22.35
2019-01-20T09:03:35.004Z,27.87
2019-01-20T09:06:23.197Z,27.62
2019-01-20T09:11:34.775Z,25.05
2019-01-20T09:14:22.914Z,23.87
2019-01-20T09:17:04.190Z,30.97
2019-01-20T09:22:23.798Z,26.62
2019-01-20T09:24:52.834Z,28.10
2019-01-20T09:27:41.281Z,27.87
2019-01-20T09:30:29.460Z,24.47
2019-01-20T09:32:58.544Z,27.90
2019-01-20T09:35:46.671Z,25.60
2019-01-20T09:38:34.840Z,24.37
2019-01-20T09:41:23.108Z,28.75
2019-01-20T09:44:04.021Z,30.23
2019-01-20T09:46:45.212Z,32.53
2019-01-20T09:49:26.072Z,31.73
2019-01-20T09:52:07.522Z,27.37
2019-01-20T09:54:48.208Z,27.02
2019-01-20T09:57:29.388Z,24.57
2019-01-20T10:00:10.765Z,30.90
2019-01-20T10:02:39.891Z,26.87
2019-01-20T10:05:09.347Z,25.05
2019-01-20T10:07:57.638Z,27.60
2019-01-20T10:10:45.947Z,36.15
2019-01-20T10:13:54.639Z,31.52
2019-01-20T10:16:18.597Z,32.55
2019-01-20T10:18:47.728Z,32.15
2019-01-20T10:21:37.243Z,30.70
2019-01-20T10:24:18.475Z,34.45
2019-01-20T10:26:47.607Z,25.15
2019-01-20T10:29:35.843Z,28.10
2019-01-20T10:32:04.876Z,31.80
2019-01-20T10:37:40.989Z,28.15
2019-01-20T10:42:52.291Z,26.97
2019-01-20T10:45:40.561Z,25.00
2019-01-20T10:48:21.728Z,29.45
2019-01-20T10:51:02.246Z,20.97
2019-01-20T10:53:43.356Z,26.75
2019-01-20T10:56:24.014Z,29.07
2019-01-20T10:59:06.537Z,32.15
2019-01-20T11:01:49.433Z,30.23
2019-01-20T11:04:30.794Z,26.55
2019-01-20T11:06:59.835Z,23.35
2019-01-20T11:09:48.157Z,26.65
2019-01-20T11:12:36.315Z,28.10
2019-01-20T11:15:20.490Z,27.52
2019-01-20T11:18:01.784Z,26.45
2019-01-20T11:20:42.712Z,26.20
2019-01-20T11:23:11.956Z,27.65
2019-01-20T11:25:42.973Z,26.60
2019-01-20T11:28:31.240Z,29.20
2019-01-20T11:31:19.434Z,23.10
2019-01-20T11:36:36.560Z,30.52
2019-01-20T11:39:24.860Z,27.07
2019-01-20T11:42:05.643Z,26.13
2019-01-20T11:44:34.572Z,26.37
2019-01-20T11:50:18.943Z,24.70
2019-01-20T11:53:07.204Z,29.17
2019-01-20T11:55:36.199Z,25.00
2019-01-20T11:58:24.378Z,27.13
2019-01-20T12:01:12.576Z,23.40
2019-01-20T12:03:56.764Z,26.17
2019-01-20T12:06:38.129Z,24.77
2019-01-20T12:09:19.501Z,29.23
2019-01-20T12:11:48.509Z,26.07
2019-01-20T12:14:36.956Z,24.57
2019-01-20T12:17:06.325Z,24.07
2019-01-20T12:20:11.380Z,30.80
2019-01-20T12:22:41.818Z,32.10
2019-01-20T12:25:27.996Z,23.60
2019-01-20T12:27:59.570Z,25.50
2019-01-20T12:30:30.436Z,27.23
2019-01-20T12:36:38.911Z,25.17
2019-01-20T12:39:35.413Z,29.10
2019-01-20T12:47:28.855Z,28.30
2019-01-20T12:50:09.945Z,27.47
2019-01-20T12:52:51.307Z,28.37
2019-01-20T12:55:20.544Z,26.03
2019-01-20T12:58:08.854Z,24.87
2019-01-20T13:00:50.124Z,23.53
2019-01-20T13:03:31.324Z,24.93
2019-01-20T13:09:17.412Z,25.90
2019-01-20T13:12:01.424Z,23.60
2019-01-20T13:23:02.182Z,27.43
2019-01-20T13:25:31.820Z,25.77
2019-01-20T13:28:20.008Z,25.80
2019-01-20T13:31:08.326Z,24.10
2019-01-20T13:33:49.401Z,23.23
2019-01-20T13:36:18.447Z,24.43
2019-01-20T13:39:08.623Z,27.73
2019-01-20T13:41:56.837Z,27.07
2019-01-20T13:44:37.524Z,22.50
2019-01-20T13:47:18.397Z,26.27
2019-01-20T13:50:02.882Z,25.53
2019-01-20T13:52:44.107Z,22.30
2019-01-20T13:55:25.101Z,21.83
2019-01-20T14:00:57.681Z,22.90
2019-01-20T14:03:38.190Z,27.70
2019-01-20T14:06:18.669Z,23.40
2019-01-20T14:08:59.272Z,29.63
2019-01-20T14:11:40.489Z,25.90
2019-01-20T14:17:03.882Z,22.13
2019-01-20T14:22:36.221Z,22.43
2019-01-20T14:28:01.852Z,26.93
2019-01-20T14:33:24.445Z,23.10
2019-01-20T14:36:05.279Z,27.00
2019-01-20T14:38:46.227Z,28.17
2019-01-20T14:44:19.085Z,28.27
2019-01-20T14:47:00.153Z,25.40
2019-01-20T14:49:43.907Z,23.53
2019-01-20T14:52:25.182Z,25.23
2019-01-20T14:54:55.913Z,28.13
2019-01-20T14:57:44.174Z,19.10
2019-01-20T15:00:19.624Z,27.87
2019-01-20T15:03:08.182Z,23.60
2019-01-20T15:05:52.423Z,28.50
2019-01-20T15:11:20.860Z,21.30
2019-01-20T15:13:49.967Z,28.30
2019-01-20T15:16:38.375Z,30.50
2019-01-20T15:19:26.637Z,27.20
2019-01-20T15:22:07.727Z,30.07
2019-01-20T15:24:36.784Z,31.60
2019-01-20T15:27:25.129Z,26.63
2019-01-20T15:30:05.701Z,26.73
2019-01-20T15:32:46.559Z,26.60
2019-01-20T15:35:30.959Z,26.67
2019-01-20T15:38:00.119Z,24.30
2019-01-20T15:40:48.377Z,26.70
2019-01-20T15:46:11.816Z,37.07
2019-01-20T15:48:53.182Z,31.83
2019-01-20T15:51:36.749Z,31.80
2019-01-20T15:54:06.145Z,25.83
2019-01-20T15:56:54.226Z,33.30
2019-01-20T15:59:42.596Z,27.90
2019-01-20T16:02:26.611Z,25.07
2019-01-20T16:05:07.193Z,26.30
2019-01-20T16:10:33.342Z,28.50
2019-01-20T16:13:14.599Z,33.33
2019-01-20T16:15:55.257Z,32.70
2019-01-20T16:18:37.868Z,24.32
2019-01-20T16:21:19.233Z,32.80
2019-01-20T16:23:59.905Z,31.75
2019-01-20T16:26:41.943Z,30.95
2019-01-20T16:29:23.097Z,30.30
2019-01-20T16:32:04.204Z,35.43
2019-01-20T16:34:44.980Z,27.40
2019-01-20T16:37:26.119Z,23.75
2019-01-20T16:40:06.985Z,32.78
2019-01-20T16:42:48.300Z,34.75
2019-01-20T16:45:19.515Z,36.53
2019-01-20T16:48:07.777Z,33.30
2019-01-20T16:50:56.035Z,32.33
2019-01-20T16:53:44.249Z,35.85
2019-01-20T16:56:25.407Z,31.05
2019-01-20T16:59:08.311Z,36.08
2019-01-20T17:01:49.357Z,29.55
2019-01-20T17:04:30.470Z,33.28
2019-01-20T17:06:59.474Z,36.03
2019-01-20T17:09:47.774Z,38.70
2019-01-20T17:12:36.099Z,36.95
2019-01-20T17:15:17.308Z,36.77
2019-01-20T17:17:56.553Z,32.40
2019-01-20T17:20:37.803Z,30.35
2019-01-20T17:23:19.024Z,34.45
2019-01-20T17:25:48.300Z,38.75
2019-01-20T17:28:36.652Z,32.45
2019-01-20T17:31:18.133Z,32.48
2019-01-20T17:33:59.574Z,35.90
2019-01-20T17:36:29.488Z,36.73
2019-01-20T17:38:58.671Z,46.73
2019-01-20T17:41:47.149Z,35.65
2019-01-20T17:44:35.320Z,36.25
2019-01-20T17:47:16.503Z,40.70
2019-01-20T17:49:58.441Z,32.25
2019-01-20T17:52:39.374Z,42.65
2019-01-20T17:58:02.672Z,41.45
2019-01-20T18:01:02.158Z,42.03
2019-01-20T18:03:43.585Z,33.88
2019-01-20T18:06:24.165Z,39.10
2019-01-20T18:15:05.267Z,35.45
2019-01-20T18:20:31.976Z,40.98
2019-01-20T18:23:13.126Z,37.65
2019-01-20T18:25:53.725Z,43.60
2019-01-20T18:28:34.248Z,37.98
2019-01-20T18:31:14.843Z,37.85
2019-01-20T18:33:55.597Z,36.08
2019-01-20T18:36:36.263Z,44.05
2019-01-20T18:39:17.273Z,39.45
2019-01-20T18:41:57.979Z,38.55
2019-01-20T18:44:39.121Z,34.63
2019-01-20T18:47:19.679Z,43.68
2019-01-20T18:50:07.964Z,37.40
2019-01-20T18:52:48.631Z,39.95
2019-01-20T18:55:32.421Z,38.60
2019-01-20T18:58:13.812Z,35.03
2019-01-20T19:00:55.395Z,40.25
2019-01-20T19:03:36.197Z,43.02
2019-01-20T19:06:17.589Z,49.40
2019-01-20T19:08:46.644Z,43.95
2019-01-20T19:11:34.818Z,45.45
2019-01-20T19:14:23.077Z,42.62
2019-01-20T19:17:03.930Z,37.53
2019-01-20T19:19:32.960Z,48.33
2019-01-20T19:22:21.228Z,46.60
2019-01-20T19:25:09.526Z,44.77
2019-01-20T19:27:50.650Z,40.85
2019-01-20T19:30:32.954Z,41.15
2019-01-20T19:33:13.930Z,43.58
2019-01-20T19:35:55.274Z,37.25
2019-01-20T19:38:36.014Z,44.90
2019-01-20T19:41:05.190Z,43.80
2019-01-20T19:43:53.501Z,40.58
2019-01-20T19:46:41.788Z,38.98
2019-01-20T19:49:23.027Z,39.88
2019-01-20T19:52:03.681Z,40.73
2019-01-20T19:54:32.955Z,42.67
2019-01-20T19:57:21.430Z,41.83
2019-01-20T19:59:50.808Z,39.55
2019-01-20T20:02:39.083Z,41.68
2019-01-20T20:05:20.757Z,38.55
2019-01-20T20:08:02.048Z,45.65
2019-01-20T20:10:42.975Z,46.10
2019-01-20T20:13:23.509Z,47.08
2019-01-20T20:15:52.803Z,41.45
2019-01-20T20:18:41.142Z,44.08
2019-01-20T20:21:22.319Z,38.73
2019-01-20T20:24:03.546Z,42.40
2019-01-20T20:26:44.259Z,39.25
2019-01-20T20:29:25.038Z,41.08
2019-01-20T20:32:06.364Z,45.92
2019-01-20T20:34:35.527Z,41.00
2019-01-20T20:37:04.961Z,49.35
2019-01-20T20:39:53.337Z,45.70
2019-01-20T20:48:54.557Z,35.45
2019-01-20T20:51:37.043Z,38.28
2019-01-20T20:54:25.830Z,40.17
2019-01-20T20:57:07.141Z,41.53
2019-01-20T20:59:47.747Z,34.23
2019-01-20T21:02:16.758Z,35.45
2019-01-20T21:05:06.595Z,38.53
2019-01-20T21:07:47.900Z,40.75
2019-01-20T21:10:30.175Z,33.15
2019-01-20T21:12:59.428Z,44.58
2019-01-20T21:19:22.487Z,34.40
2019-01-20T21:24:54.645Z,34.58
2019-01-20T21:30:25.521Z,37.17
2019-01-20T21:35:56.366Z,43.78
2019-01-20T21:41:29.889Z,34.92
2019-01-20T21:44:12.384Z,43.80
2019-01-20T21:46:55.996Z,40.35
2019-01-20T21:49:40.562Z,34.15
2019-01-20T21:52:24.443Z,39.42
2019-01-20T21:55:05.015Z,38.83
2019-01-20T21:57:49.532Z,40.08
2019-01-20T22:03:30.578Z,38.45
2019-01-20T22:06:11.992Z,38.10
2019-01-20T22:08:55.122Z,38.88
2019-01-20T22:11:24.315Z,36.55
2019-01-20T22:17:09.592Z,39.95
2019-01-20T22:20:16.974Z,37.53
2019-01-20T22:25:43.746Z,42.60
2019-01-20T22:28:24.203Z,35.75
2019-01-20T22:31:05.359Z,34.20
2019-01-20T22:33:34.854Z,33.53
2019-01-20T22:42:15.464Z,32.00
2019-01-20T22:45:00.727Z,44.15
2019-01-20T22:50:27.127Z,36.93
2019-01-20T22:53:08.648Z,36.85
2019-01-20T22:55:51.692Z,33.67
2019-01-20T22:58:35.037Z,37.00
2019-01-20T23:01:19.148Z,31.70
2019-01-20T23:12:32.669Z,29.12
2019-01-20T23:15:01.819Z,39.85
2019-01-20T23:24:03.938Z,30.57
2019-01-20T23:26:44.794Z,37.70
2019-01-20T23:29:25.619Z,33.63
2019-01-20T23:31:55.960Z,41.10
2019-01-20T23:34:44.707Z,39.73
2019-01-20T23:37:29.852Z,34.65
2019-01-20T23:40:21.262Z,36.33
2019-01-20T23:43:02.411Z,38.58
2019-01-20T23:45:43.286Z,38.92
2019-01-20T23:48:24.387Z,39.85
2019-01-20T23:50:53.573Z,33.55
2019-01-20T23:53:42.265Z,35.10
2019-01-20T23:56:30.532Z,36.28
2019-01-20T23:59:11.252Z,36.25
